TimeMST,TemperatureF,Dew PointF,Humidity,Sea Level PressureIn,VisibilityMPH,Wind Direction,Wind SpeedMPH,Gust SpeedMPH,PrecipitationIn,Events,Conditions,WindDirDegrees,DateUTC
12:55 AM,71.6,59.0,64,29.98,10.0,Calm,Calm,-,N/A,,Mostly Cloudy,0,2013-08-02 07:55:00
1:55 AM,71.6,60.8,69,29.96,10.0,Calm,Calm,-,N/A,,Mostly Cloudy,0,2013-08-02 08:55:00
2:01 AM,69.8,59.0,68,29.95,10.0,Calm,Calm,-,N/A,,Mostly Cloudy,0,2013-08-02 09:01:00
2:55 AM,71.6,57.2,60,29.93,10.0,Calm,Calm,-,N/A,,Mostly Cloudy,0,2013-08-02 09:55:00
3:55 AM,69.8,57.2,64,29.93,10.0,Calm,Calm,-,N/A,,Mostly Cloudy,0,2013-08-02 10:55:00
4:55 AM,69.8,59.0,68,29.96,10.0,North,5.8,-,N/A,,Mostly Cloudy,360,2013-08-02 11:55:00
5:55 AM,68.0,60.8,78,29.97,10.0,Calm,Calm,-,N/A,,Mostly Cloudy,0,2013-08-02 12:55:00
6:55 AM,69.8,60.8,73,29.98,10.0,Calm,Calm,-,N/A,,Mostly Cloudy,0,2013-08-02 13:55:00
7:55 AM,75.2,60.8,61,30.00,10.0,Calm,Calm,-,N/A,,Partly Cloudy,0,2013-08-02 14:55:00
8:55 AM,80.6,60.8,51,30.00,10.0,SW,3.5,-,N/A,,Scattered Clouds,220,2013-08-02 15:55:00
9:55 AM,82.4,62.6,51,30.01,10.0,ESE,6.9,-,N/A,,Mostly Cloudy,110,2013-08-02 16:55:00
10:24 AM,82.4,62.6,51,30.19,10.0,Variable,3.5,-,N/A,Rain,Light Rain Showers,0,2013-08-02 17:24:00
10:46 AM,78.8,64.4,61,30.19,10.0,WSW,6.9,-,N/A,Rain-Thunderstorm,Light Thunderstorms and Rain,240,2013-08-02 17:46:00
10:55 AM,80.6,64.4,58,30.00,10.0,SW,8.1,-,N/A,Thunderstorm,Thunderstorm,220,2013-08-02 17:55:00
11:24 AM,78.8,60.8,54,30.19,10.0,North,3.5,-,N/A,Rain-Thunderstorm,Light Thunderstorms and Rain,360,2013-08-02 18:24:00
11:46 AM,80.6,62.6,54,30.18,10.0,South,6.9,-,N/A,Thunderstorm,Mostly Cloudy,170,2013-08-02 18:46:00
11:55 AM,80.6,60.8,51,29.99,10.0,South,11.5,-,N/A,Thunderstorm,Thunderstorm,170,2013-08-02 18:55:00
12:02 PM,80.6,60.8,51,30.18,10.0,South,15.0,-,N/A,Rain-Thunderstorm,Light Thunderstorms and Rain,170,2013-08-02 19:02:00
12:27 PM,71.6,60.8,69,30.20,10.0,West,27.6,39.1,N/A,Rain-Thunderstorm,Light Thunderstorms and Rain,280,2013-08-02 19:27:00
12:55 PM,68.0,62.6,83,30.02,10.0,West,13.8,-,N/A,Rain-Thunderstorm,Light Thunderstorms and Rain,260,2013-08-02 19:55:00
1:55 PM,73.4,62.6,69,29.95,10.0,South,12.7,-,N/A,Rain-Thunderstorm,Light Thunderstorms and Rain,170,2013-08-02 20:55:00
2:55 PM,75.2,64.4,69,29.97,10.0,Variable,2.3,-,N/A,Rain-Thunderstorm,Light Rain Showers,0,2013-08-02 21:55:00
3:25 PM,80.6,64.4,58,30.15,10.0,WNW,15.0,-,N/A,,Mostly Cloudy,290,2013-08-02 22:25:00
3:55 PM,78.8,59.0,51,29.94,10.0,West,13.8,-,N/A,,Mostly Cloudy,270,2013-08-02 22:55:00